createdAt,value
2023-02-04T00:00:07.822Z,99.38
2023-02-04T00:02:35.177Z,99.23
2023-02-04T00:05:02.057Z,99.52
2023-02-04T00:07:28.746Z,98.63
2023-02-04T00:09:55.494Z,99.11
2023-02-04T00:12:22.600Z,98.67
2023-02-04T00:14:49.276Z,98.89
2023-02-04T00:17:15.947Z,99.99
2023-02-04T00:19:42.587Z,100.00
2023-02-04T00:22:09.943Z,100.00
2023-02-04T00:24:37.631Z,100.00
2023-02-04T00:27:05.951Z,100.00
2023-02-04T00:29:32.546Z,100.00
2023-02-04T00:31:59.303Z,100.00
2023-02-04T00:34:26.115Z,100.00
2023-02-04T00:36:52.698Z,100.00
2023-02-04T00:39:19.367Z,100.00
2023-02-04T00:41:46.000Z,100.00
2023-02-04T00:44:14.120Z,100.00
2023-02-04T00:46:42.577Z,98.92
2023-02-04T00:49:10.787Z,98.48
2023-02-04T00:51:41.137Z,97.18
2023-02-04T00:54:07.866Z,96.46
2023-02-04T00:56:34.839Z,95.37
2023-02-04T00:59:01.709Z,95.05
2023-02-04T01:01:28.557Z,93.79
2023-02-04T01:03:55.265Z,93.32
2023-02-04T01:06:21.930Z,92.90
2023-02-04T01:08:48.565Z,92.26
2023-02-04T01:11:15.187Z,92.11
2023-02-04T01:13:42.264Z,92.50
2023-02-04T01:16:09.673Z,92.44
2023-02-04T01:18:36.370Z,91.82
2023-02-04T01:21:03.137Z,91.58
2023-02-04T01:23:29.764Z,91.24
2023-02-04T01:25:56.498Z,91.86
2023-02-04T01:28:23.118Z,91.42
2023-02-04T01:30:49.760Z,91.86
2023-02-04T01:33:16.624Z,92.73
2023-02-04T01:35:43.399Z,92.55
2023-02-04T01:38:10.144Z,92.91
2023-02-04T01:40:37.130Z,93.21
2023-02-04T01:43:04.084Z,93.07
2023-02-04T01:45:33.635Z,92.66
2023-02-04T01:48:00.742Z,92.74
2023-02-04T01:50:27.418Z,93.00
2023-02-04T01:52:54.178Z,92.64
2023-02-04T01:55:25.984Z,92.37
2023-02-04T01:57:53.338Z,92.69
2023-02-04T02:00:26.034Z,93.15
2023-02-04T02:02:53.533Z,92.52
2023-02-04T02:05:36.134Z,93.22
2023-02-04T02:08:04.865Z,91.78
2023-02-04T02:10:32.898Z,91.58
2023-02-04T02:13:00.226Z,91.43
2023-02-04T02:15:27.494Z,91.75
2023-02-04T02:17:55.116Z,90.80
2023-02-04T02:20:23.622Z,91.39
2023-02-04T02:23:22.035Z,90.72
2023-02-04T02:25:49.540Z,89.90
2023-02-04T02:28:19.093Z,89.42
2023-02-04T02:30:47.108Z,88.34
2023-02-04T02:33:17.369Z,88.71
2023-02-04T02:35:48.263Z,88.14
2023-02-04T02:38:17.319Z,88.74
2023-02-04T02:40:44.195Z,89.33
2023-02-04T02:43:20.161Z,88.14
2023-02-04T02:45:47.667Z,88.16
2023-02-04T02:48:14.732Z,87.50
2023-02-04T02:50:43.213Z,87.08
2023-02-04T02:53:15.461Z,86.82
2023-02-04T02:55:42.471Z,86.86
2023-02-04T02:58:32.755Z,87.21
2023-02-04T03:01:06.346Z,87.49
2023-02-04T03:03:36.042Z,87.22
2023-02-04T03:06:10.106Z,88.46
2023-02-04T03:08:37.402Z,87.25
2023-02-04T03:11:04.226Z,87.19
2023-02-04T03:13:31.102Z,86.53
2023-02-04T03:15:58.286Z,86.41
2023-02-04T03:18:25.017Z,85.40
2023-02-04T03:20:52.266Z,84.59
2023-02-04T03:23:20.314Z,84.41
2023-02-04T03:25:47.304Z,84.65
2023-02-04T03:28:14.058Z,84.51
2023-02-04T03:30:40.838Z,84.42
2023-02-04T03:33:07.516Z,83.72
2023-02-04T03:35:34.109Z,82.99
2023-02-04T03:38:00.758Z,83.71
2023-02-04T03:40:27.390Z,83.10
2023-02-04T03:42:54.059Z,82.29
2023-02-04T03:45:21.273Z,81.56
2023-02-04T03:47:47.900Z,80.67
2023-02-04T03:50:14.977Z,81.53
2023-02-04T03:52:41.646Z,81.85
2023-02-04T03:55:08.567Z,80.72
2023-02-04T03:57:35.182Z,80.23
2023-02-04T04:00:01.855Z,79.98
2023-02-04T04:02:28.525Z,78.75
2023-02-04T04:04:55.164Z,80.81
2023-02-04T04:07:21.839Z,80.19
2023-02-04T04:09:48.406Z,81.38
2023-02-04T04:12:15.038Z,80.90
2023-02-04T04:14:41.683Z,81.12
2023-02-04T04:17:08.304Z,80.29
2023-02-04T04:19:34.963Z,81.49
2023-02-04T04:22:01.616Z,81.41
2023-02-04T04:24:28.248Z,81.59
2023-02-04T04:26:54.852Z,82.47
2023-02-04T04:29:21.483Z,81.99
2023-02-04T04:31:48.151Z,82.03
2023-02-04T04:34:14.800Z,82.05
2023-02-04T04:36:41.434Z,81.66
2023-02-04T04:39:08.036Z,82.40
2023-02-04T04:41:34.671Z,81.85
2023-02-04T04:44:01.298Z,81.43
2023-02-04T04:46:27.931Z,81.62
2023-02-04T04:48:54.558Z,81.78
2023-02-04T04:51:21.182Z,81.67
2023-02-04T04:53:47.798Z,81.39
2023-02-04T04:56:14.409Z,80.54
2023-02-04T04:58:41.012Z,80.90
2023-02-04T05:01:07.694Z,80.85
2023-02-04T05:03:34.358Z,80.26
2023-02-04T05:06:00.988Z,79.92
2023-02-04T05:08:27.615Z,80.27
2023-02-04T05:10:54.224Z,79.76
2023-02-04T05:13:20.922Z,80.06
2023-02-04T05:15:47.550Z,80.49
2023-02-04T05:18:14.151Z,79.08
2023-02-04T05:20:40.764Z,78.79
2023-02-04T05:23:07.415Z,79.45
2023-02-04T05:25:34.079Z,78.44
2023-02-04T05:28:00.782Z,79.15
2023-02-04T05:30:27.500Z,79.37
2023-02-04T05:32:54.147Z,80.20
2023-02-04T05:35:20.839Z,80.30
2023-02-04T05:37:47.508Z,80.71
2023-02-04T05:40:14.378Z,80.35
2023-02-04T05:42:41.916Z,81.22
2023-02-04T05:45:15.626Z,81.32
2023-02-04T05:47:42.937Z,80.84
2023-02-04T05:50:09.890Z,81.50
2023-02-04T05:52:36.532Z,81.32
2023-02-04T05:55:03.465Z,81.51
2023-02-04T05:57:30.230Z,81.31
2023-02-04T05:59:56.852Z,82.05
2023-02-04T06:02:23.562Z,82.39
2023-02-04T06:04:50.127Z,83.10
2023-02-04T06:07:16.770Z,83.40
2023-02-04T06:09:43.412Z,83.72
2023-02-04T06:12:10.582Z,84.70
2023-02-04T06:14:37.206Z,84.77
2023-02-04T06:17:04.034Z,85.37
2023-02-04T06:19:30.615Z,85.87
2023-02-04T06:21:57.359Z,85.62
2023-02-04T06:24:23.992Z,86.79
2023-02-04T06:26:50.563Z,89.68
2023-02-04T06:29:17.174Z,93.39
2023-02-04T06:31:44.672Z,95.04
2023-02-04T06:34:11.359Z,97.75
2023-02-04T06:36:38.000Z,98.81
2023-02-04T06:39:04.664Z,98.50
2023-02-04T06:41:31.271Z,99.96
2023-02-04T06:43:57.908Z,100.00
2023-02-04T06:46:24.567Z,100.00
2023-02-04T06:48:51.164Z,100.00
2023-02-04T06:51:17.815Z,97.50
2023-02-04T06:53:45.854Z,97.55
2023-02-04T06:56:12.623Z,94.03
2023-02-04T06:58:39.308Z,93.60
2023-02-04T07:01:06.439Z,93.98
2023-02-04T07:03:33.988Z,91.71
2023-02-04T07:06:00.671Z,91.11
2023-02-04T07:08:27.376Z,90.53
2023-02-04T07:10:53.982Z,89.83
2023-02-04T07:13:20.568Z,89.29
2023-02-04T07:15:47.181Z,89.73
2023-02-04T07:18:14.082Z,84.59
2023-02-04T07:20:40.676Z,86.21
2023-02-04T07:23:07.266Z,82.44
2023-02-04T07:25:33.883Z,80.42
2023-02-04T07:28:02.014Z,80.30
2023-02-04T07:30:28.672Z,79.76
2023-02-04T07:32:55.316Z,80.49
2023-02-04T07:35:21.969Z,80.44
2023-02-04T07:37:48.592Z,81.15
2023-02-04T07:40:15.462Z,77.84
2023-02-04T07:42:42.081Z,76.16
2023-02-04T07:45:09.204Z,77.14
2023-02-04T07:47:35.898Z,79.46
2023-02-04T07:50:02.529Z,75.32
2023-02-04T07:52:29.163Z,76.67
2023-02-04T07:54:55.792Z,74.83
2023-02-04T07:57:22.515Z,72.38
2023-02-04T07:59:49.130Z,73.23
2023-02-04T08:02:15.762Z,74.86
2023-02-04T08:04:42.401Z,74.53
2023-02-04T08:07:09.072Z,73.86
2023-02-04T08:09:35.757Z,74.06
2023-02-04T08:12:02.533Z,76.69
2023-02-04T08:14:29.209Z,72.31
2023-02-04T08:16:55.859Z,72.62
2023-02-04T08:19:22.548Z,74.79
2023-02-04T08:21:49.246Z,75.35
2023-02-04T08:24:16.410Z,74.46
2023-02-04T08:26:44.302Z,76.55
2023-02-04T08:29:11.009Z,76.71
2023-02-04T08:31:38.365Z,75.98
2023-02-04T08:34:05.912Z,75.51
2023-02-04T08:36:34.467Z,76.33
2023-02-04T08:39:01.340Z,75.63
2023-02-04T08:41:27.942Z,74.75
2023-02-04T08:43:54.522Z,73.89
2023-02-04T08:46:21.216Z,75.98
2023-02-04T08:48:47.969Z,75.33
2023-02-04T08:51:14.817Z,75.56
2023-02-04T08:53:41.448Z,77.04
2023-02-04T08:56:09.268Z,72.29
2023-02-04T08:58:36.550Z,71.58
2023-02-04T09:01:03.342Z,72.16
2023-02-04T09:03:29.976Z,71.84
2023-02-04T09:05:56.642Z,74.54
2023-02-04T09:08:23.224Z,73.40
2023-02-04T09:10:49.877Z,76.69
2023-02-04T09:13:16.611Z,75.34
2023-02-04T09:15:43.215Z,75.65
2023-02-04T09:18:17.920Z,75.33
2023-02-04T09:20:45.543Z,75.95
2023-02-04T09:23:12.958Z,74.23
2023-02-04T09:25:40.347Z,75.60
2023-02-04T09:28:10.076Z,74.47
2023-02-04T09:30:37.442Z,75.01
2023-02-04T09:33:04.321Z,73.40
2023-02-04T09:35:31.127Z,72.63
2023-02-04T09:37:57.745Z,71.74
2023-02-04T09:40:27.458Z,72.73
2023-02-04T09:42:55.551Z,73.20
2023-02-04T09:45:26.744Z,73.74
2023-02-04T09:47:54.446Z,76.24
2023-02-04T09:50:24.406Z,76.38
2023-02-04T09:52:54.360Z,74.38
2023-02-04T09:55:25.107Z,76.12
2023-02-04T09:57:51.740Z,75.24
2023-02-04T10:00:22.492Z,76.72
2023-02-04T10:02:49.331Z,76.00
2023-02-04T10:05:24.680Z,75.82
2023-02-04T10:07:51.276Z,76.78
2023-02-04T10:10:20.265Z,75.94
2023-02-04T10:12:48.546Z,76.61
2023-02-04T10:15:20.664Z,72.42
2023-02-04T10:17:54.563Z,76.20
2023-02-04T10:20:23.876Z,76.04
2023-02-04T10:22:53.650Z,72.14
2023-02-04T10:25:23.235Z,73.20
2023-02-04T10:27:55.468Z,75.27
2023-02-04T10:30:35.602Z,73.42
2023-02-04T10:33:24.780Z,71.86
2023-02-04T10:35:54.030Z,73.59
2023-02-04T10:38:21.142Z,71.07
2023-02-04T10:40:47.839Z,73.38
2023-02-04T10:43:23.802Z,69.21
2023-02-04T10:45:59.053Z,71.37
2023-02-04T10:48:26.240Z,69.31
2023-02-04T10:50:52.963Z,69.41
2023-02-04T10:53:45.088Z,68.48
2023-02-04T10:56:17.648Z,69.58
2023-02-04T10:58:44.522Z,67.49
2023-02-04T11:01:12.384Z,64.05
2023-02-04T11:03:40.378Z,66.01
2023-02-04T11:06:13.431Z,69.58
2023-02-04T11:08:40.906Z,65.95
2023-02-04T11:11:19.321Z,65.19
2023-02-04T11:13:59.136Z,65.50
2023-02-04T11:16:32.948Z,64.70
2023-02-04T11:19:05.591Z,64.56
2023-02-04T11:21:42.515Z,65.41
2023-02-04T11:24:33.065Z,68.29
2023-02-04T11:27:09.102Z,68.49
2023-02-04T11:29:42.804Z,65.51
2023-02-04T11:32:37.695Z,66.77
2023-02-04T11:35:28.636Z,67.66
2023-02-04T11:37:56.055Z,66.32
2023-02-04T11:40:40.830Z,66.74
2023-02-04T11:43:14.965Z,65.77
2023-02-04T11:45:42.584Z,67.16
2023-02-04T11:48:15.571Z,64.96
2023-02-04T11:50:42.303Z,66.31
2023-02-04T11:53:11.623Z,63.58
2023-02-04T11:55:47.398Z,65.03
2023-02-04T11:58:16.761Z,66.09
2023-02-04T12:00:44.052Z,66.12
2023-02-04T12:03:36.172Z,65.82
2023-02-04T12:06:03.542Z,63.47
2023-02-04T12:08:36.203Z,65.99
2023-02-04T12:11:07.643Z,65.52
2023-02-04T12:13:45.329Z,65.01
2023-02-04T12:16:11.927Z,64.82
2023-02-04T12:18:39.130Z,67.70
2023-02-04T12:21:05.840Z,67.53
2023-02-04T12:23:32.582Z,66.98
2023-02-04T12:25:59.308Z,68.27
2023-02-04T12:28:28.095Z,66.86
2023-02-04T12:30:55.527Z,66.61
2023-02-04T12:33:22.840Z,67.53
2023-02-04T12:35:49.468Z,66.10
2023-02-04T12:38:16.340Z,67.87
2023-02-04T12:40:43.172Z,67.60
2023-02-04T12:43:09.783Z,68.80
2023-02-04T12:45:37.800Z,70.72
2023-02-04T12:48:04.471Z,71.65
2023-02-04T12:50:31.094Z,71.60
2023-02-04T12:52:59.283Z,69.63
2023-02-04T12:55:28.832Z,67.03
2023-02-04T12:57:56.347Z,69.72
2023-02-04T13:00:23.227Z,66.57
2023-02-04T13:02:50.223Z,67.61
2023-02-04T13:05:17.401Z,67.44
2023-02-04T13:07:44.188Z,67.20
2023-02-04T13:10:11.640Z,65.14
2023-02-04T13:12:38.223Z,64.14
2023-02-04T13:15:05.885Z,64.52
2023-02-04T13:17:32.551Z,63.80
2023-02-04T13:20:00.549Z,65.88
2023-02-04T13:22:27.679Z,65.12
2023-02-04T13:24:54.384Z,65.47
2023-02-04T13:27:21.057Z,64.30
2023-02-04T13:29:47.694Z,63.68
2023-02-04T13:32:14.246Z,65.27
2023-02-04T13:34:40.947Z,63.78
2023-02-04T13:37:07.714Z,63.61
2023-02-04T13:39:34.309Z,62.35
2023-02-04T13:42:00.910Z,62.77
2023-02-04T13:44:27.756Z,61.67
2023-02-04T13:46:54.375Z,62.69
2023-02-04T13:49:21.669Z,63.59
2023-02-04T13:51:48.272Z,60.86
2023-02-04T13:54:14.972Z,59.40
2023-02-04T13:56:41.558Z,61.64
2023-02-04T13:59:08.222Z,59.67
2023-02-04T14:01:34.852Z,60.30
2023-02-04T14:04:01.545Z,61.16
2023-02-04T14:06:34.466Z,55.01
2023-02-04T14:09:01.766Z,59.00
2023-02-04T14:11:28.741Z,61.35
2023-02-04T14:13:55.523Z,62.43
2023-02-04T14:16:22.252Z,60.38
2023-02-04T14:18:48.909Z,59.11
2023-02-04T14:21:15.548Z,60.49
2023-02-04T14:23:42.311Z,60.77
2023-02-04T14:26:10.500Z,62.98
2023-02-04T14:28:37.089Z,62.69
2023-02-04T14:31:03.892Z,63.00
2023-02-04T14:33:30.545Z,61.67
2023-02-04T14:35:57.146Z,60.35
2023-02-04T14:38:23.696Z,60.77
2023-02-04T14:40:50.335Z,61.39
2023-02-04T14:43:16.934Z,62.23
2023-02-04T14:45:43.618Z,59.76
2023-02-04T14:48:10.482Z,60.44
2023-02-04T14:50:37.095Z,59.25
2023-02-04T14:53:03.775Z,59.84
2023-02-04T14:55:30.375Z,60.66
2023-02-04T14:57:56.992Z,61.27
2023-02-04T15:00:24.068Z,61.99
2023-02-04T15:02:50.992Z,59.89
2023-02-04T15:05:18.068Z,60.99
2023-02-04T15:07:44.634Z,61.79
2023-02-04T15:10:14.808Z,60.99
2023-02-04T15:12:41.853Z,60.03
2023-02-04T15:15:09.194Z,62.37
2023-02-04T15:17:35.795Z,61.26
2023-02-04T15:20:04.087Z,61.27
2023-02-04T15:22:30.728Z,62.60
2023-02-04T15:24:57.359Z,65.91
2023-02-04T15:27:24.430Z,61.92
2023-02-04T15:29:51.052Z,62.60
2023-02-04T15:32:17.717Z,63.53
2023-02-04T15:34:44.344Z,62.60
2023-02-04T15:37:11.026Z,63.58
2023-02-04T15:39:38.603Z,65.25
2023-02-04T15:42:05.294Z,62.74
2023-02-04T15:44:32.136Z,63.95
2023-02-04T15:46:58.783Z,63.45
2023-02-04T15:49:25.435Z,63.61
2023-02-04T15:51:52.051Z,62.70
2023-02-04T15:54:18.671Z,63.50
2023-02-04T15:56:45.280Z,66.18
2023-02-04T15:59:11.982Z,63.57
2023-02-04T16:01:38.707Z,64.71
2023-02-04T16:04:05.410Z,65.16
2023-02-04T16:06:32.032Z,63.43
2023-02-04T16:08:58.662Z,64.71
2023-02-04T16:11:25.347Z,64.07
2023-02-04T16:13:52.150Z,63.43
2023-02-04T16:16:19.600Z,64.38
2023-02-04T16:18:46.224Z,61.70
2023-02-04T16:21:12.942Z,62.95
2023-02-04T16:23:39.537Z,62.38
2023-02-04T16:26:06.150Z,60.51
2023-02-04T16:28:32.717Z,63.66
2023-02-04T16:30:59.433Z,60.21
2023-02-04T16:33:27.887Z,59.83
2023-02-04T16:36:07.463Z,59.41
2023-02-04T16:38:36.592Z,59.65
2023-02-04T16:41:03.569Z,61.72
2023-02-04T16:43:30.427Z,61.40
2023-02-04T16:45:57.088Z,62.54
2023-02-04T16:48:24.620Z,62.68
2023-02-04T16:50:51.464Z,62.70
2023-02-04T16:53:18.094Z,62.16
2023-02-04T16:55:46.162Z,61.02
2023-02-04T16:58:13.670Z,60.62
2023-02-04T17:00:44.816Z,60.93
2023-02-04T17:03:12.181Z,61.78
2023-02-04T17:05:39.707Z,63.47
2023-02-04T17:08:06.970Z,63.35
2023-02-04T17:10:52.170Z,64.15
2023-02-04T17:13:19.142Z,61.28
2023-02-04T17:15:45.789Z,63.51
2023-02-04T17:18:12.369Z,63.51
2023-02-04T17:20:39.038Z,62.46
2023-02-04T17:23:05.600Z,62.31
2023-02-04T17:25:32.623Z,61.22
2023-02-04T17:27:59.351Z,63.64
2023-02-04T17:30:26.017Z,62.29
2023-02-04T17:32:52.652Z,62.93
2023-02-04T17:35:19.289Z,62.22
2023-02-04T17:37:45.891Z,61.43
2023-02-04T17:40:15.651Z,62.80
2023-02-04T17:42:42.372Z,61.50
2023-02-04T17:45:10.747Z,63.35
2023-02-04T17:47:40.935Z,62.01
2023-02-04T17:50:10.048Z,62.84
2023-02-04T17:52:37.946Z,63.48
2023-02-04T17:55:32.695Z,64.44
2023-02-04T17:58:39.037Z,63.51
2023-02-04T18:01:14.860Z,65.46
2023-02-04T18:03:46.017Z,62.49
2023-02-04T18:06:20.360Z,62.44
2023-02-04T18:08:47.772Z,61.54
2023-02-04T18:11:27.513Z,63.95
2023-02-04T18:13:57.632Z,62.72
2023-02-04T18:16:30.528Z,60.67
2023-02-04T18:19:08.620Z,61.56
2023-02-04T18:21:37.070Z,61.53
2023-02-04T18:24:18.569Z,62.55
2023-02-04T18:26:53.449Z,63.02
2023-02-04T18:29:37.460Z,62.92
2023-02-04T18:32:25.739Z,60.78
2023-02-04T18:34:54.135Z,57.65
2023-02-04T18:37:33.755Z,59.65
2023-02-04T18:40:33.558Z,60.53
2023-02-04T18:43:36.899Z,61.09
2023-02-04T18:46:16.318Z,62.23
2023-02-04T18:49:02.919Z,61.48
2023-02-04T18:51:32.634Z,63.48
2023-02-04T18:54:17.809Z,62.95
2023-02-04T18:56:44.479Z,62.41
2023-02-04T18:59:15.902Z,62.45
2023-02-04T19:01:43.725Z,62.58
2023-02-04T19:04:20.951Z,63.06
2023-02-04T19:06:51.029Z,63.71
2023-02-04T19:09:27.171Z,63.82
2023-02-04T19:11:55.996Z,63.06
2023-02-04T19:14:36.352Z,63.28
2023-02-04T19:17:21.294Z,63.46
2023-02-04T19:19:55.989Z,64.05
2023-02-04T19:22:31.945Z,65.04
2023-02-04T19:25:18.702Z,64.26
2023-02-04T19:27:51.073Z,64.65
2023-02-04T19:30:40.700Z,64.83
2023-02-04T19:33:16.258Z,64.50
2023-02-04T19:35:43.357Z,65.63
2023-02-04T19:38:45.155Z,65.57
2023-02-04T19:41:49.065Z,65.14
2023-02-04T19:44:45.744Z,65.62
2023-02-04T19:47:24.574Z,64.66
2023-02-04T19:49:55.496Z,64.65
2023-02-04T19:52:43.765Z,63.44
2023-02-04T19:58:29.407Z,64.69
2023-02-04T20:01:18.199Z,63.60
2023-02-04T20:03:49.080Z,64.01
2023-02-04T20:06:45.564Z,64.13
2023-02-04T20:09:29.125Z,64.36
2023-02-04T20:12:05.922Z,63.65
2023-02-04T20:14:53.340Z,63.94
2023-02-04T20:17:41.862Z,64.16
2023-02-04T20:20:29.929Z,64.45
2023-02-04T20:23:23.154Z,64.29
2023-02-04T20:25:50.496Z,65.62
2023-02-04T20:28:42.348Z,65.96
2023-02-04T20:31:29.071Z,65.48
2023-02-04T20:33:59.372Z,65.00
2023-02-04T20:36:47.218Z,64.61
2023-02-04T20:39:36.468Z,65.25
2023-02-04T20:42:20.867Z,64.59
2023-02-04T20:44:48.157Z,65.74
2023-02-04T20:47:23.840Z,66.77
2023-02-04T20:49:58.272Z,65.59
2023-02-04T20:52:40.106Z,66.26
2023-02-04T20:55:27.243Z,66.34
2023-02-04T20:58:21.738Z,65.69
2023-02-04T21:00:53.293Z,66.88
2023-02-04T21:03:26.483Z,66.92
2023-02-04T21:05:54.588Z,66.26
2023-02-04T21:08:35.701Z,67.18
2023-02-04T21:11:02.954Z,67.56
2023-02-04T21:13:29.775Z,68.78
2023-02-04T21:15:56.695Z,67.33
2023-02-04T21:18:23.472Z,67.29
2023-02-04T21:20:50.036Z,66.25
2023-02-04T21:23:17.883Z,67.81
2023-02-04T21:25:44.998Z,67.66
2023-02-04T21:28:12.194Z,68.46
2023-02-04T21:30:38.843Z,68.38
2023-02-04T21:33:05.718Z,69.15
2023-02-04T21:35:32.604Z,68.81
2023-02-04T21:37:59.876Z,69.39
2023-02-04T21:40:26.818Z,68.68
2023-02-04T21:42:53.958Z,68.99
2023-02-04T21:45:22.745Z,68.52
2023-02-04T21:47:50.425Z,69.24
2023-02-04T21:50:19.212Z,68.22
2023-02-04T21:52:46.192Z,68.98
2023-02-04T21:55:14.499Z,69.25
2023-02-04T21:57:41.099Z,69.31
2023-02-04T22:00:09.891Z,69.81
2023-02-04T22:02:36.471Z,69.92
2023-02-04T22:05:07.239Z,70.55
2023-02-04T22:07:35.135Z,70.76
2023-02-04T22:10:02.214Z,70.63
2023-02-04T22:12:28.852Z,69.72
2023-02-04T22:15:14.076Z,70.64
2023-02-04T22:17:40.820Z,70.20
2023-02-04T22:20:08.087Z,69.99
2023-02-04T22:22:34.829Z,70.08
2023-02-04T22:25:01.838Z,70.55
2023-02-04T22:27:28.411Z,70.05
2023-02-04T22:29:56.846Z,69.98
2023-02-04T22:32:24.191Z,69.96
2023-02-04T22:34:50.930Z,70.60
2023-02-04T22:37:17.775Z,70.32
2023-02-04T22:39:44.412Z,69.80
2023-02-04T22:42:11.029Z,69.44
2023-02-04T22:44:37.759Z,70.08
2023-02-04T22:47:04.768Z,70.47
2023-02-04T22:49:35.715Z,69.67
2023-02-04T22:52:03.946Z,70.10
2023-02-04T22:54:31.052Z,69.54
2023-02-04T22:57:00.171Z,71.15
2023-02-04T22:59:27.822Z,69.99
2023-02-04T23:01:55.777Z,69.70
2023-02-04T23:04:23.058Z,70.29
2023-02-04T23:06:50.476Z,69.85
2023-02-04T23:09:18.855Z,70.28
2023-02-04T23:11:45.521Z,70.84
2023-02-04T23:14:12.463Z,70.70
2023-02-04T23:16:39.592Z,70.50
2023-02-04T23:19:06.488Z,70.84
2023-02-04T23:21:33.563Z,70.18
2023-02-04T23:24:00.529Z,69.80
2023-02-04T23:26:27.278Z,70.88
2023-02-04T23:28:53.898Z,69.85
2023-02-04T23:31:20.542Z,69.61
2023-02-04T23:33:47.214Z,70.02
2023-02-04T23:36:14.013Z,69.28
2023-02-04T23:38:40.606Z,69.36
2023-02-04T23:41:07.232Z,68.30
2023-02-04T23:43:33.906Z,68.31
2023-02-04T23:46:00.597Z,67.93
2023-02-04T23:48:27.263Z,67.16
2023-02-04T23:50:57.017Z,67.46
2023-02-04T23:53:24.148Z,67.22
2023-02-04T23:55:51.500Z,66.41
2023-02-04T23:58:18.292Z,66.31
